Pagina principale
METAR-TAF:

METAR-TAF

Aeroporti :

Grosseto, Italia

Aeroporto di Grosseto

latitudine: 42-45N, longitudine: 011-04E, altezza: 5 m

Osservazione

Il bollettino è stato emesso 45 minuti fa, alle 12:55 UTC
Vento 10 kt da nord/nord-ovest
Temperature 21°C
Umidità 56%
Pressione 1011 hPa
Visibilità 10 km o più
Poco nuvoloso ad un'altezza di 2500 ft

METAR: LIRS 191255Z 33010KT 9999 FEW025 21/12 Q1011 RMK SCT VIS MIN 9999 WIND THR03 31010KT WIND THR21 31008KT BLU

Ora: 15:40 (13:40 UTC)

Previsione

Il bollettino è stato emesso 2 ore e 40 minuti fa, alle 11:00 UTC
Previsione valida dal 19 alle 12 UTC al 19 alle 21 UTC
Vento 12 kt da nord/nord-ovest
Visibilità 10 km o più
Nubi sparse ad un'altezza di 2000 ft
Temporaneamente
dal 19 alle 12 UTC al 19 alle 14 UTC
Vento 12 kt da nord/nord-ovest con raffiche fino a 22 kt

TAF: LIRS 191100Z 1912/1921 33012KT 9999 SCT020 TEMPO 1912/1914 33012G22KT

Osservazioni e previsioni meteorologiche di più di 4000 aeroporti (messaggi METAR e TAF).

Le stazioni disponibili sono rappresentate dai dischi gialli e rossi sulla carta.

Puntare il mouse per vedere il nome della stazione.

Clicca sopra per visualizzare le osservazioni e previsioni meteorologiche.

Per cambiare la mappa : fare clic sui pulsanti verdi con una croce nera per ingrandire, il pulsante verde con un trattino per diminuire, o sulla freccia verde per le mappe adiacenti.


METAR-TAF: